sensor_id;sensor_type;location;lat;lon;timestamp;P1;durP1;ratioP1;P2;durP2;ratioP2
3867;SDS011;1949;48.152;11.528;2023-03-13T00:01:30;1.97;;;1.00;;
3867;SDS011;1949;48.152;11.528;2023-03-13T00:04:04;1.47;;;1.10;;
3867;SDS011;1949;48.152;11.528;2023-03-13T00:06:35;4.60;;;1.57;;
3867;SDS011;1949;48.152;11.528;2023-03-13T00:09:05;2.10;;;1.43;;
3867;SDS011;1949;48.152;11.528;2023-03-13T00:11:32;3.90;;;1.40;;
3867;SDS011;1949;48.152;11.528;2023-03-13T00:14:00;2.70;;;1.37;;
3867;SDS011;1949;48.152;11.528;2023-03-13T00:16:29;1.50;;;1.10;;
3867;SDS011;1949;48.152;11.528;2023-03-13T00:18:55;5.53;;;1.60;;
3867;SDS011;1949;48.152;11.528;2023-03-13T00:21:24;5.57;;;1.47;;
3867;SDS011;1949;48.152;11.528;2023-03-13T00:23:53;2.63;;;1.33;;
3867;SDS011;1949;48.152;11.528;2023-03-13T00:26:21;1.60;;;1.10;;
3867;SDS011;1949;48.152;11.528;2023-03-13T00:28:53;1.80;;;1.70;;
3867;SDS011;1949;48.152;11.528;2023-03-13T00:31:22;1.77;;;1.10;;
3867;SDS011;1949;48.152;11.528;2023-03-13T00:36:24;3.03;;;1.20;;
3867;SDS011;1949;48.152;11.528;2023-03-13T00:38:57;0.73;;;0.73;;
3867;SDS011;1949;48.152;11.528;2023-03-13T00:41:24;2.23;;;0.97;;
3867;SDS011;1949;48.152;11.528;2023-03-13T00:43:54;2.13;;;1.20;;
3867;SDS011;1949;48.152;11.528;2023-03-13T00:46:23;7.03;;;2.90;;
3867;SDS011;1949;48.152;11.528;2023-03-13T00:48:51;4.20;;;1.30;;
3867;SDS011;1949;48.152;11.528;2023-03-13T00:51:18;1.30;;;0.80;;
3867;SDS011;1949;48.152;11.528;2023-03-13T00:53:50;3.23;;;1.03;;
3867;SDS011;1949;48.152;11.528;2023-03-13T00:56:17;2.60;;;1.43;;
3867;SDS011;1949;48.152;11.528;2023-03-13T00:58:45;5.40;;;2.17;;
3867;SDS011;1949;48.152;11.528;2023-03-13T01:01:27;3.87;;;1.50;;
3867;SDS011;1949;48.152;11.528;2023-03-13T01:04:04;1.27;;;1.17;;
3867;SDS011;1949;48.152;11.528;2023-03-13T01:06:34;2.90;;;1.23;;
3867;SDS011;1949;48.152;11.528;2023-03-13T01:09:03;4.03;;;1.60;;
3867;SDS011;1949;48.152;11.528;2023-03-13T01:11:31;1.37;;;1.27;;
3867;SDS011;1949;48.152;11.528;2023-03-13T01:14:02;2.20;;;1.20;;
3867;SDS011;1949;48.152;11.528;2023-03-13T01:16:32;1.53;;;1.13;;
3867;SDS011;1949;48.152;11.528;2023-03-13T01:19:07;1.63;;;1.10;;
3867;SDS011;1949;48.152;11.528;2023-03-13T01:24:16;2.00;;;1.40;;
3867;SDS011;1949;48.152;11.528;2023-03-13T01:26:44;1.27;;;1.03;;
3867;SDS011;1949;48.152;11.528;2023-03-13T01:29:12;2.40;;;1.53;;
3867;SDS011;1949;48.152;11.528;2023-03-13T01:31:40;1.67;;;1.03;;
3867;SDS011;1949;48.152;11.528;2023-03-13T01:34:09;1.17;;;1.07;;
3867;SDS011;1949;48.152;11.528;2023-03-13T01:39:08;2.97;;;1.10;;
3867;SDS011;1949;48.152;11.528;2023-03-13T01:41:44;2.17;;;1.17;;
3867;SDS011;1949;48.152;11.528;2023-03-13T01:44:26;0.83;;;0.80;;
3867;SDS011;1949;48.152;11.528;2023-03-13T01:46:54;1.47;;;1.07;;
3867;SDS011;1949;48.152;11.528;2023-03-13T01:54:38;4.23;;;1.57;;
3867;SDS011;1949;48.152;11.528;2023-03-13T02:02:40;2.50;;;0.90;;
3867;SDS011;1949;48.152;11.528;2023-03-13T02:05:18;1.30;;;1.20;;
3867;SDS011;1949;48.152;11.528;2023-03-13T02:07:47;0.90;;;0.80;;
3867;SDS011;1949;48.152;11.528;2023-03-13T02:10:20;2.93;;;1.27;;
3867;SDS011;1949;48.152;11.528;2023-03-13T02:12:49;2.40;;;1.00;;
3867;SDS011;1949;48.152;11.528;2023-03-13T02:15:20;0.90;;;0.80;;
3867;SDS011;1949;48.152;11.528;2023-03-13T02:17:49;2.67;;;1.23;;
3867;SDS011;1949;48.152;11.528;2023-03-13T02:20:17;1.13;;;1.03;;
3867;SDS011;1949;48.152;11.528;2023-03-13T02:22:59;2.10;;;1.20;;
3867;SDS011;1949;48.152;11.528;2023-03-13T02:25:46;2.60;;;1.30;;
3867;SDS011;1949;48.152;11.528;2023-03-13T02:28:17;3.53;;;1.20;;
3867;SDS011;1949;48.152;11.528;2023-03-13T02:30:47;1.43;;;0.80;;
3867;SDS011;1949;48.152;11.528;2023-03-13T02:33:17;1.10;;;1.00;;
3867;SDS011;1949;48.152;11.528;2023-03-13T02:35:45;4.60;;;0.93;;
3867;SDS011;1949;48.152;11.528;2023-03-13T02:38:19;1.43;;;0.90;;
3867;SDS011;1949;48.152;11.528;2023-03-13T02:43:34;1.23;;;1.00;;
3867;SDS011;1949;48.152;11.528;2023-03-13T02:46:17;1.23;;;0.90;;
3867;SDS011;1949;48.152;11.528;2023-03-13T02:48:54;3.33;;;1.10;;
3867;SDS011;1949;48.152;11.528;2023-03-13T02:53:54;1.70;;;1.00;;
3867;SDS011;1949;48.152;11.528;2023-03-13T02:56:37;2.40;;;0.90;;
3867;SDS011;1949;48.152;11.528;2023-03-13T03:01:41;3.37;;;0.80;;
3867;SDS011;1949;48.152;11.528;2023-03-13T03:04:08;0.90;;;0.90;;
3867;SDS011;1949;48.152;11.528;2023-03-13T03:06:36;1.30;;;0.90;;
3867;SDS011;1949;48.152;11.528;2023-03-13T03:09:02;0.90;;;0.80;;
3867;SDS011;1949;48.152;11.528;2023-03-13T03:11:30;3.03;;;1.00;;
3867;SDS011;1949;48.152;11.528;2023-03-13T03:13:55;1.70;;;0.97;;
3867;SDS011;1949;48.152;11.528;2023-03-13T03:16:21;2.17;;;1.00;;
3867;SDS011;1949;48.152;11.528;2023-03-13T03:18:47;1.47;;;1.10;;
3867;SDS011;1949;48.152;11.528;2023-03-13T03:21:25;1.20;;;0.87;;
3867;SDS011;1949;48.152;11.528;2023-03-13T03:23:51;1.83;;;0.87;;
3867;SDS011;1949;48.152;11.528;2023-03-13T03:26:17;0.90;;;0.60;;
3867;SDS011;1949;48.152;11.528;2023-03-13T03:28:45;2.83;;;1.13;;
3867;SDS011;1949;48.152;11.528;2023-03-13T03:31:11;4.90;;;1.50;;
3867;SDS011;1949;48.152;11.528;2023-03-13T03:33:39;0.80;;;0.80;;
3867;SDS011;1949;48.152;11.528;2023-03-13T03:36:06;0.93;;;0.70;;
3867;SDS011;1949;48.152;11.528;2023-03-13T03:38:34;1.47;;;0.70;;
3867;SDS011;1949;48.152;11.528;2023-03-13T03:41:02;1.10;;;0.80;;
3867;SDS011;1949;48.152;11.528;2023-03-13T03:43:30;1.67;;;0.83;;
3867;SDS011;1949;48.152;11.528;2023-03-13T03:48:25;1.37;;;0.90;;
3867;SDS011;1949;48.152;11.528;2023-03-13T03:50:51;1.77;;;0.70;;
3867;SDS011;1949;48.152;11.528;2023-03-13T03:53:17;1.40;;;0.77;;
3867;SDS011;1949;48.152;11.528;2023-03-13T03:55:43;1.80;;;0.70;;
3867;SDS011;1949;48.152;11.528;2023-03-13T03:58:09;0.90;;;0.70;;
3867;SDS011;1949;48.152;11.528;2023-03-13T04:00:45;0.60;;;0.60;;
3867;SDS011;1949;48.152;11.528;2023-03-13T04:03:12;0.90;;;0.80;;
3867;SDS011;1949;48.152;11.528;2023-03-13T04:05:40;0.60;;;0.60;;
3867;SDS011;1949;48.152;11.528;2023-03-13T04:08:06;0.87;;;0.70;;
3867;SDS011;1949;48.152;11.528;2023-03-13T04:10:43;0.70;;;0.70;;
3867;SDS011;1949;48.152;11.528;2023-03-13T04:13:11;2.20;;;1.00;;
3867;SDS011;1949;48.152;11.528;2023-03-13T04:15:37;1.10;;;0.80;;
3867;SDS011;1949;48.152;11.528;2023-03-13T04:18:05;2.00;;;1.23;;
3867;SDS011;1949;48.152;11.528;2023-03-13T04:20:32;0.80;;;0.80;;
3867;SDS011;1949;48.152;11.528;2023-03-13T04:23:04;1.00;;;0.60;;
3867;SDS011;1949;48.152;11.528;2023-03-13T04:25:34;0.60;;;0.60;;
3867;SDS011;1949;48.152;11.528;2023-03-13T04:28:00;1.10;;;0.80;;
3867;SDS011;1949;48.152;11.528;2023-03-13T04:30:26;1.70;;;0.77;;
3867;SDS011;1949;48.152;11.528;2023-03-13T04:32:52;0.60;;;0.50;;
3867;SDS011;1949;48.152;11.528;2023-03-13T04:35:19;1.40;;;0.80;;
3867;SDS011;1949;48.152;11.528;2023-03-13T04:37:45;6.10;;;2.20;;
3867;SDS011;1949;48.152;11.528;2023-03-13T04:40:11;2.33;;;1.03;;
3867;SDS011;1949;48.152;11.528;2023-03-13T04:42:37;2.80;;;1.40;;
3867;SDS011;1949;48.152;11.528;2023-03-13T04:45:04;1.23;;;0.90;;
3867;SDS011;1949;48.152;11.528;2023-03-13T04:47:33;1.53;;;0.80;;
3867;SDS011;1949;48.152;11.528;2023-03-13T04:49:59;1.00;;;0.83;;
3867;SDS011;1949;48.152;11.528;2023-03-13T04:52:25;1.80;;;0.80;;
3867;SDS011;1949;48.152;11.528;2023-03-13T04:54:51;1.30;;;0.93;;
3867;SDS011;1949;48.152;11.528;2023-03-13T04:57:16;0.83;;;0.70;;
3867;SDS011;1949;48.152;11.528;2023-03-13T04:59:42;1.40;;;0.90;;
3867;SDS011;1949;48.152;11.528;2023-03-13T05:02:11;1.43;;;1.33;;
3867;SDS011;1949;48.152;11.528;2023-03-13T05:04:38;3.80;;;0.90;;
3867;SDS011;1949;48.152;11.528;2023-03-13T05:07:06;1.73;;;0.70;;
3867;SDS011;1949;48.152;11.528;2023-03-13T05:09:33;1.40;;;0.70;;
3867;SDS011;1949;48.152;11.528;2023-03-13T05:12:02;12.27;;;1.70;;
3867;SDS011;1949;48.152;11.528;2023-03-13T05:14:29;2.00;;;0.90;;
3867;SDS011;1949;48.152;11.528;2023-03-13T05:16:56;2.27;;;1.60;;
3867;SDS011;1949;48.152;11.528;2023-03-13T05:25:07;1.17;;;1.00;;
3867;SDS011;1949;48.152;11.528;2023-03-13T05:27:34;1.60;;;1.10;;
3867;SDS011;1949;48.152;11.528;2023-03-13T05:29:59;2.07;;;0.90;;
3867;SDS011;1949;48.152;11.528;2023-03-13T05:32:25;6.47;;;3.23;;
3867;SDS011;1949;48.152;11.528;2023-03-13T05:34:57;2.77;;;1.63;;
3867;SDS011;1949;48.152;11.528;2023-03-13T05:40:58;2.07;;;1.30;;
3867;SDS011;1949;48.152;11.528;2023-03-13T05:46:32;8.63;;;1.70;;
3867;SDS011;1949;48.152;11.528;2023-03-13T05:48:58;1.73;;;1.40;;
3867;SDS011;1949;48.152;11.528;2023-03-13T05:54:14;5.97;;;3.07;;
3867;SDS011;1949;48.152;11.528;2023-03-13T06:02:34;7.20;;;2.23;;
3867;SDS011;1949;48.152;11.528;2023-03-13T06:08:22;4.63;;;1.50;;
3867;SDS011;1949;48.152;11.528;2023-03-13T06:10:47;2.97;;;1.87;;
3867;SDS011;1949;48.152;11.528;2023-03-13T06:25:28;11.23;;;5.87;;
3867;SDS011;1949;48.152;11.528;2023-03-13T06:30:39;7.57;;;3.87;;
3867;SDS011;1949;48.152;11.528;2023-03-13T06:33:09;14.07;;;5.43;;
3867;SDS011;1949;48.152;11.528;2023-03-13T06:38:24;7.47;;;3.40;;
3867;SDS011;1949;48.152;11.528;2023-03-13T06:40:54;8.00;;;2.73;;
3867;SDS011;1949;48.152;11.528;2023-03-13T06:46:19;4.73;;;2.90;;
3867;SDS011;1949;48.152;11.528;2023-03-13T06:49:02;7.43;;;2.80;;
3867;SDS011;1949;48.152;11.528;2023-03-13T06:51:35;5.83;;;2.13;;
3867;SDS011;1949;48.152;11.528;2023-03-13T06:59:49;6.60;;;2.87;;
3867;SDS011;1949;48.152;11.528;2023-03-13T07:02:21;6.60;;;3.93;;
3867;SDS011;1949;48.152;11.528;2023-03-13T07:04:56;7.67;;;3.27;;
3867;SDS011;1949;48.152;11.528;2023-03-13T07:10:21;9.10;;;4.00;;
3867;SDS011;1949;48.152;11.528;2023-03-13T07:12:47;6.33;;;3.00;;
3867;SDS011;1949;48.152;11.528;2023-03-13T07:15:18;3.83;;;2.27;;
3867;SDS011;1949;48.152;11.528;2023-03-13T07:17:57;5.97;;;3.00;;
3867;SDS011;1949;48.152;11.528;2023-03-13T07:20:28;5.00;;;3.00;;
3867;SDS011;1949;48.152;11.528;2023-03-13T07:23:05;7.70;;;3.10;;
3867;SDS011;1949;48.152;11.528;2023-03-13T07:31:29;9.33;;;4.07;;
3867;SDS011;1949;48.152;11.528;2023-03-13T07:34:04;6.40;;;3.33;;
3867;SDS011;1949;48.152;11.528;2023-03-13T07:36:35;12.63;;;4.13;;
3867;SDS011;1949;48.152;11.528;2023-03-13T07:39:02;2.20;;;1.20;;
3867;SDS011;1949;48.152;11.528;2023-03-13T07:41:29;8.20;;;3.63;;
3867;SDS011;1949;48.152;11.528;2023-03-13T07:43:55;7.17;;;3.40;;
3867;SDS011;1949;48.152;11.528;2023-03-13T07:49:02;11.30;;;4.30;;
3867;SDS011;1949;48.152;11.528;2023-03-13T07:51:28;5.80;;;1.30;;
3867;SDS011;1949;48.152;11.528;2023-03-13T07:53:54;4.57;;;2.20;;
3867;SDS011;1949;48.152;11.528;2023-03-13T07:59:09;2.50;;;1.30;;
3867;SDS011;1949;48.152;11.528;2023-03-13T08:01:46;9.93;;;4.47;;
3867;SDS011;1949;48.152;11.528;2023-03-13T08:04:13;6.70;;;3.50;;
3867;SDS011;1949;48.152;11.528;2023-03-13T08:09:31;2.10;;;1.67;;
3867;SDS011;1949;48.152;11.528;2023-03-13T08:14:49;8.47;;;4.17;;
3867;SDS011;1949;48.152;11.528;2023-03-13T08:17:18;6.73;;;2.97;;
3867;SDS011;1949;48.152;11.528;2023-03-13T08:25:20;7.93;;;3.47;;
3867;SDS011;1949;48.152;11.528;2023-03-13T08:27:46;10.00;;;1.60;;
3867;SDS011;1949;48.152;11.528;2023-03-13T08:30:14;4.90;;;2.40;;
3867;SDS011;1949;48.152;11.528;2023-03-13T08:32:56;11.80;;;5.13;;
3867;SDS011;1949;48.152;11.528;2023-03-13T08:35:28;19.13;;;4.50;;
3867;SDS011;1949;48.152;11.528;2023-03-13T08:38:00;12.00;;;4.40;;
3867;SDS011;1949;48.152;11.528;2023-03-13T08:43:28;5.47;;;2.47;;
3867;SDS011;1949;48.152;11.528;2023-03-13T08:45:54;5.50;;;1.70;;
3867;SDS011;1949;48.152;11.528;2023-03-13T08:48:20;4.07;;;2.17;;
3867;SDS011;1949;48.152;11.528;2023-03-13T08:50:46;5.47;;;1.83;;
3867;SDS011;1949;48.152;11.528;2023-03-13T08:53:21;8.17;;;3.03;;
3867;SDS011;1949;48.152;11.528;2023-03-13T08:55:51;13.20;;;6.30;;
3867;SDS011;1949;48.152;11.528;2023-03-13T08:58:23;1.90;;;1.20;;
3867;SDS011;1949;48.152;11.528;2023-03-13T09:00:50;3.50;;;2.00;;
3867;SDS011;1949;48.152;11.528;2023-03-13T09:03:15;4.00;;;2.00;;
3867;SDS011;1949;48.152;11.528;2023-03-13T09:05:42;3.70;;;1.53;;
3867;SDS011;1949;48.152;11.528;2023-03-13T09:08:14;5.23;;;2.30;;
3867;SDS011;1949;48.152;11.528;2023-03-13T09:13:50;1.50;;;1.27;;
3867;SDS011;1949;48.152;11.528;2023-03-13T09:16:21;2.30;;;1.10;;
3867;SDS011;1949;48.152;11.528;2023-03-13T09:18:48;7.07;;;3.20;;
3867;SDS011;1949;48.152;11.528;2023-03-13T09:21:16;2.87;;;1.07;;
3867;SDS011;1949;48.152;11.528;2023-03-13T09:23:48;9.70;;;4.20;;
3867;SDS011;1949;48.152;11.528;2023-03-13T09:28:52;9.03;;;1.70;;
3867;SDS011;1949;48.152;11.528;2023-03-13T09:31:19;2.30;;;1.57;;
3867;SDS011;1949;48.152;11.528;2023-03-13T09:33:47;2.80;;;1.23;;
3867;SDS011;1949;48.152;11.528;2023-03-13T09:36:27;3.63;;;1.30;;
3867;SDS011;1949;48.152;11.528;2023-03-13T09:39:10;1.57;;;1.07;;
3867;SDS011;1949;48.152;11.528;2023-03-13T09:44:34;0.97;;;0.87;;
3867;SDS011;1949;48.152;11.528;2023-03-13T10:07:45;3.00;;;1.60;;
3867;SDS011;1949;48.152;11.528;2023-03-13T10:10:18;0.70;;;0.70;;
3867;SDS011;1949;48.152;11.528;2023-03-13T10:19:35;1.57;;;0.77;;
3867;SDS011;1949;48.152;11.528;2023-03-13T10:24:57;0.90;;;0.60;;
3867;SDS011;1949;48.152;11.528;2023-03-13T10:27:26;1.20;;;0.70;;
3867;SDS011;1949;48.152;11.528;2023-03-13T10:29:52;1.20;;;0.80;;
3867;SDS011;1949;48.152;11.528;2023-03-13T10:32:18;1.20;;;0.90;;
3867;SDS011;1949;48.152;11.528;2023-03-13T10:34:58;2.87;;;1.00;;
3867;SDS011;1949;48.152;11.528;2023-03-13T10:40:42;1.83;;;1.40;;
3867;SDS011;1949;48.152;11.528;2023-03-13T10:43:20;1.57;;;0.80;;
3867;SDS011;1949;48.152;11.528;2023-03-13T10:45:46;0.70;;;0.60;;
3867;SDS011;1949;48.152;11.528;2023-03-13T10:48:13;0.70;;;0.70;;
3867;SDS011;1949;48.152;11.528;2023-03-13T10:50:43;0.70;;;0.50;;
3867;SDS011;1949;48.152;11.528;2023-03-13T11:02:53;1.00;;;0.70;;
3867;SDS011;1949;48.152;11.528;2023-03-13T11:07:57;1.53;;;0.70;;
3867;SDS011;1949;48.152;11.528;2023-03-13T11:10:34;0.60;;;0.50;;
3867;SDS011;1949;48.152;11.528;2023-03-13T11:16:26;0.70;;;0.70;;
3867;SDS011;1949;48.152;11.528;2023-03-13T11:22:21;0.70;;;0.50;;
3867;SDS011;1949;48.152;11.528;2023-03-13T11:28:19;1.57;;;0.67;;
3867;SDS011;1949;48.152;11.528;2023-03-13T11:40:02;0.60;;;0.60;;
3867;SDS011;1949;48.152;11.528;2023-03-13T11:42:54;0.90;;;0.70;;
3867;SDS011;1949;48.152;11.528;2023-03-13T11:57:28;2.13;;;0.70;;
3867;SDS011;1949;48.152;11.528;2023-03-13T12:06:01;3.57;;;0.70;;
3867;SDS011;1949;48.152;11.528;2023-03-13T12:13:52;0.90;;;0.77;;
3867;SDS011;1949;48.152;11.528;2023-03-13T12:16:36;3.70;;;0.90;;
3867;SDS011;1949;48.152;11.528;2023-03-13T12:19:14;2.07;;;1.00;;
3867;SDS011;1949;48.152;11.528;2023-03-13T12:28:14;2.53;;;0.90;;
3867;SDS011;1949;48.152;11.528;2023-03-13T12:31:39;1.33;;;0.80;;
3867;SDS011;1949;48.152;11.528;2023-03-13T12:34:09;1.77;;;1.10;;
3867;SDS011;1949;48.152;11.528;2023-03-13T12:45:31;1.87;;;0.90;;
3867;SDS011;1949;48.152;11.528;2023-03-13T12:50:46;1.90;;;1.27;;
3867;SDS011;1949;48.152;11.528;2023-03-13T12:56:05;3.70;;;0.93;;
3867;SDS011;1949;48.152;11.528;2023-03-13T13:01:53;3.17;;;1.00;;
3867;SDS011;1949;48.152;11.528;2023-03-13T13:15:58;1.57;;;0.90;;
3867;SDS011;1949;48.152;11.528;2023-03-13T13:21:20;7.33;;;0.90;;
3867;SDS011;1949;48.152;11.528;2023-03-13T13:27:02;2.30;;;1.00;;
3867;SDS011;1949;48.152;11.528;2023-03-13T13:35:23;1.37;;;0.80;;
3867;SDS011;1949;48.152;11.528;2023-03-13T13:52:39;1.77;;;0.70;;
3867;SDS011;1949;48.152;11.528;2023-03-13T14:10:47;7.40;;;1.83;;
3867;SDS011;1949;48.152;11.528;2023-03-13T14:13:27;0.80;;;0.80;;
3867;SDS011;1949;48.152;11.528;2023-03-13T14:24:54;9.00;;;3.40;;
3867;SDS011;1949;48.152;11.528;2023-03-13T14:27:22;9.50;;;4.97;;
3867;SDS011;1949;48.152;11.528;2023-03-13T14:30:01;2.60;;;1.90;;
3867;SDS011;1949;48.152;11.528;2023-03-13T14:32:32;3.23;;;2.30;;
3867;SDS011;1949;48.152;11.528;2023-03-13T14:34:58;4.80;;;1.20;;
3867;SDS011;1949;48.152;11.528;2023-03-13T14:40:04;10.30;;;5.63;;
3867;SDS011;1949;48.152;11.528;2023-03-13T14:42:38;2.17;;;1.57;;
3867;SDS011;1949;48.152;11.528;2023-03-13T14:45:21;15.23;;;7.63;;
3867;SDS011;1949;48.152;11.528;2023-03-13T14:48:02;4.00;;;1.87;;
3867;SDS011;1949;48.152;11.528;2023-03-13T14:50:40;3.47;;;1.10;;
3867;SDS011;1949;48.152;11.528;2023-03-13T14:55:43;0.90;;;0.73;;
3867;SDS011;1949;48.152;11.528;2023-03-13T15:00:47;3.23;;;2.27;;
3867;SDS011;1949;48.152;11.528;2023-03-13T15:03:18;27.23;;;15.23;;
3867;SDS011;1949;48.152;11.528;2023-03-13T15:05:47;1.97;;;1.77;;
3867;SDS011;1949;48.152;11.528;2023-03-13T15:08:17;3.37;;;1.73;;
3867;SDS011;1949;48.152;11.528;2023-03-13T15:10:45;18.50;;;9.27;;
3867;SDS011;1949;48.152;11.528;2023-03-13T15:13:21;1.00;;;0.83;;
3867;SDS011;1949;48.152;11.528;2023-03-13T15:15:49;7.30;;;4.13;;
3867;SDS011;1949;48.152;11.528;2023-03-13T15:18:21;6.10;;;3.43;;
3867;SDS011;1949;48.152;11.528;2023-03-13T15:20:53;10.47;;;5.73;;
3867;SDS011;1949;48.152;11.528;2023-03-13T15:23:35;5.87;;;1.80;;
3867;SDS011;1949;48.152;11.528;2023-03-13T15:26:01;2.50;;;1.60;;
3867;SDS011;1949;48.152;11.528;2023-03-13T15:28:27;2.27;;;1.90;;
3867;SDS011;1949;48.152;11.528;2023-03-13T15:30:54;12.47;;;5.50;;
3867;SDS011;1949;48.152;11.528;2023-03-13T15:33:21;7.87;;;4.37;;
3867;SDS011;1949;48.152;11.528;2023-03-13T15:35:48;3.50;;;1.43;;
3867;SDS011;1949;48.152;11.528;2023-03-13T15:38:15;1.83;;;1.30;;
3867;SDS011;1949;48.152;11.528;2023-03-13T15:40:44;5.60;;;2.43;;
3867;SDS011;1949;48.152;11.528;2023-03-13T15:43:10;4.13;;;0.87;;
3867;SDS011;1949;48.152;11.528;2023-03-13T15:45:39;2.80;;;1.63;;
3867;SDS011;1949;48.152;11.528;2023-03-13T15:48:13;5.27;;;0.80;;
3867;SDS011;1949;48.152;11.528;2023-03-13T15:50:42;6.43;;;0.93;;
3867;SDS011;1949;48.152;11.528;2023-03-13T15:53:20;3.87;;;1.30;;
3867;SDS011;1949;48.152;11.528;2023-03-13T15:55:48;6.13;;;1.87;;
3867;SDS011;1949;48.152;11.528;2023-03-13T15:58:16;4.70;;;2.30;;
3867;SDS011;1949;48.152;11.528;2023-03-13T16:00:43;7.23;;;2.10;;
3867;SDS011;1949;48.152;11.528;2023-03-13T16:03:14;9.57;;;4.53;;
3867;SDS011;1949;48.152;11.528;2023-03-13T16:05:45;5.03;;;3.43;;
3867;SDS011;1949;48.152;11.528;2023-03-13T16:08:20;8.03;;;1.60;;
3867;SDS011;1949;48.152;11.528;2023-03-13T16:10:47;11.50;;;5.10;;
3867;SDS011;1949;48.152;11.528;2023-03-13T16:13:14;6.07;;;2.10;;
3867;SDS011;1949;48.152;11.528;2023-03-13T16:15:41;1.37;;;1.23;;
3867;SDS011;1949;48.152;11.528;2023-03-13T16:18:09;3.40;;;1.63;;
3867;SDS011;1949;48.152;11.528;2023-03-13T16:20:44;3.23;;;2.00;;
3867;SDS011;1949;48.152;11.528;2023-03-13T16:23:10;3.80;;;2.50;;
3867;SDS011;1949;48.152;11.528;2023-03-13T16:25:39;2.30;;;1.40;;
3867;SDS011;1949;48.152;11.528;2023-03-13T16:28:11;3.80;;;2.30;;
3867;SDS011;1949;48.152;11.528;2023-03-13T16:30:38;16.87;;;3.07;;
3867;SDS011;1949;48.152;11.528;2023-03-13T16:33:15;3.20;;;1.70;;
3867;SDS011;1949;48.152;11.528;2023-03-13T16:35:54;5.70;;;2.30;;
3867;SDS011;1949;48.152;11.528;2023-03-13T16:46:55;1.73;;;1.10;;
3867;SDS011;1949;48.152;11.528;2023-03-13T16:52:43;2.50;;;1.60;;
3867;SDS011;1949;48.152;11.528;2023-03-13T16:58:13;4.60;;;2.67;;
3867;SDS011;1949;48.152;11.528;2023-03-13T17:09:49;4.03;;;2.67;;
3867;SDS011;1949;48.152;11.528;2023-03-13T17:12:15;6.43;;;4.57;;
3867;SDS011;1949;48.152;11.528;2023-03-13T17:14:43;14.67;;;3.87;;
3867;SDS011;1949;48.152;11.528;2023-03-13T17:20:00;5.57;;;3.10;;
3867;SDS011;1949;48.152;11.528;2023-03-13T17:22:30;5.27;;;2.73;;
3867;SDS011;1949;48.152;11.528;2023-03-13T17:27:42;3.27;;;2.17;;
3867;SDS011;1949;48.152;11.528;2023-03-13T17:30:21;5.47;;;3.30;;
3867;SDS011;1949;48.152;11.528;2023-03-13T17:32:51;6.23;;;3.27;;
3867;SDS011;1949;48.152;11.528;2023-03-13T17:35:19;7.60;;;4.00;;
3867;SDS011;1949;48.152;11.528;2023-03-13T17:37:57;6.07;;;2.80;;
3867;SDS011;1949;48.152;11.528;2023-03-13T17:43:27;5.30;;;2.67;;
3867;SDS011;1949;48.152;11.528;2023-03-13T17:49:00;10.60;;;5.47;;
3867;SDS011;1949;48.152;11.528;2023-03-13T18:03:04;12.20;;;4.33;;
3867;SDS011;1949;48.152;11.528;2023-03-13T18:08:36;3.73;;;2.50;;
3867;SDS011;1949;48.152;11.528;2023-03-13T18:11:04;8.40;;;4.23;;
3867;SDS011;1949;48.152;11.528;2023-03-13T18:13:33;12.87;;;5.70;;
3867;SDS011;1949;48.152;11.528;2023-03-13T18:18:40;10.10;;;5.33;;
3867;SDS011;1949;48.152;11.528;2023-03-13T18:24:16;9.73;;;4.80;;
3867;SDS011;1949;48.152;11.528;2023-03-13T18:26:42;7.90;;;3.30;;
3867;SDS011;1949;48.152;11.528;2023-03-13T18:32:05;6.53;;;3.13;;
3867;SDS011;1949;48.152;11.528;2023-03-13T18:34:38;9.07;;;4.33;;
3867;SDS011;1949;48.152;11.528;2023-03-13T18:37:26;6.80;;;3.30;;
3867;SDS011;1949;48.152;11.528;2023-03-13T18:40:08;14.57;;;4.37;;
3867;SDS011;1949;48.152;11.528;2023-03-13T18:43:04;47.10;;;18.53;;
3867;SDS011;1949;48.152;11.528;2023-03-13T18:48:38;9.97;;;4.40;;
3867;SDS011;1949;48.152;11.528;2023-03-13T18:51:18;17.90;;;7.90;;
3867;SDS011;1949;48.152;11.528;2023-03-13T19:01:41;23.50;;;10.50;;
3867;SDS011;1949;48.152;11.528;2023-03-13T19:15:51;9.53;;;4.53;;
3867;SDS011;1949;48.152;11.528;2023-03-13T19:18:24;22.07;;;9.80;;
3867;SDS011;1949;48.152;11.528;2023-03-13T19:20:56;28.00;;;10.93;;
3867;SDS011;1949;48.152;11.528;2023-03-13T19:29:46;27.27;;;12.23;;
3867;SDS011;1949;48.152;11.528;2023-03-13T19:32:15;22.07;;;10.67;;
3867;SDS011;1949;48.152;11.528;2023-03-13T19:37:22;21.60;;;9.97;;
3867;SDS011;1949;48.152;11.528;2023-03-13T19:39:53;22.13;;;9.80;;
3867;SDS011;1949;48.152;11.528;2023-03-13T19:42:19;27.87;;;13.77;;
3867;SDS011;1949;48.152;11.528;2023-03-13T19:47:30;28.50;;;13.40;;
3867;SDS011;1949;48.152;11.528;2023-03-13T19:58:12;17.27;;;9.27;;
3867;SDS011;1949;48.152;11.528;2023-03-13T20:09:26;36.23;;;14.50;;
3867;SDS011;1949;48.152;11.528;2023-03-13T20:12:03;21.80;;;10.33;;
3867;SDS011;1949;48.152;11.528;2023-03-13T20:14:42;36.60;;;16.60;;
3867;SDS011;1949;48.152;11.528;2023-03-13T20:19:51;13.43;;;6.67;;
3867;SDS011;1949;48.152;11.528;2023-03-13T20:30:57;7.10;;;2.40;;
3867;SDS011;1949;48.152;11.528;2023-03-13T20:36:12;12.20;;;6.10;;
3867;SDS011;1949;48.152;11.528;2023-03-13T20:38:40;19.63;;;8.47;;
3867;SDS011;1949;48.152;11.528;2023-03-13T20:41:09;7.27;;;2.73;;
3867;SDS011;1949;48.152;11.528;2023-03-13T20:43:37;11.00;;;2.90;;
3867;SDS011;1949;48.152;11.528;2023-03-13T20:46:12;11.20;;;3.33;;
3867;SDS011;1949;48.152;11.528;2023-03-13T20:48:44;4.13;;;2.17;;
3867;SDS011;1949;48.152;11.528;2023-03-13T20:57:03;10.67;;;5.80;;
3867;SDS011;1949;48.152;11.528;2023-03-13T21:12:41;6.90;;;3.33;;
3867;SDS011;1949;48.152;11.528;2023-03-13T21:18:13;4.77;;;2.23;;
3867;SDS011;1949;48.152;11.528;2023-03-13T21:20:52;8.47;;;4.20;;
3867;SDS011;1949;48.152;11.528;2023-03-13T21:23:19;10.33;;;4.93;;
3867;SDS011;1949;48.152;11.528;2023-03-13T21:33:51;6.03;;;1.90;;
3867;SDS011;1949;48.152;11.528;2023-03-13T21:36:21;2.80;;;1.83;;
3867;SDS011;1949;48.152;11.528;2023-03-13T21:38:47;4.27;;;2.87;;
3867;SDS011;1949;48.152;11.528;2023-03-13T21:41:17;10.97;;;5.40;;
3867;SDS011;1949;48.152;11.528;2023-03-13T21:43:45;4.20;;;2.17;;
3867;SDS011;1949;48.152;11.528;2023-03-13T21:52:54;5.23;;;2.20;;
3867;SDS011;1949;48.152;11.528;2023-03-13T21:55:35;5.03;;;2.47;;
3867;SDS011;1949;48.152;11.528;2023-03-13T22:00:42;4.63;;;1.63;;
3867;SDS011;1949;48.152;11.528;2023-03-13T22:03:12;2.07;;;1.87;;
3867;SDS011;1949;48.152;11.528;2023-03-13T22:05:45;3.23;;;1.83;;
3867;SDS011;1949;48.152;11.528;2023-03-13T22:08:13;7.00;;;2.30;;
3867;SDS011;1949;48.152;11.528;2023-03-13T22:10:39;4.00;;;2.30;;
3867;SDS011;1949;48.152;11.528;2023-03-13T22:21:01;6.73;;;1.20;;
3867;SDS011;1949;48.152;11.528;2023-03-13T22:23:29;1.90;;;1.30;;
3867;SDS011;1949;48.152;11.528;2023-03-13T22:25:55;2.43;;;1.53;;
3867;SDS011;1949;48.152;11.528;2023-03-13T22:28:25;6.00;;;3.50;;
3867;SDS011;1949;48.152;11.528;2023-03-13T22:30:59;2.10;;;1.90;;
3867;SDS011;1949;48.152;11.528;2023-03-13T22:33:27;5.60;;;1.90;;
3867;SDS011;1949;48.152;11.528;2023-03-13T22:35:53;3.43;;;1.20;;
3867;SDS011;1949;48.152;11.528;2023-03-13T22:44:08;1.53;;;1.20;;
3867;SDS011;1949;48.152;11.528;2023-03-13T22:46:39;3.80;;;1.10;;
3867;SDS011;1949;48.152;11.528;2023-03-13T22:49:05;2.80;;;1.77;;
3867;SDS011;1949;48.152;11.528;2023-03-13T22:51:30;7.33;;;1.47;;
3867;SDS011;1949;48.152;11.528;2023-03-13T22:53:59;1.83;;;1.20;;
3867;SDS011;1949;48.152;11.528;2023-03-13T22:56:32;2.20;;;1.33;;
3867;SDS011;1949;48.152;11.528;2023-03-13T22:59:01;2.33;;;1.80;;
3867;SDS011;1949;48.152;11.528;2023-03-13T23:06:44;1.27;;;1.10;;
3867;SDS011;1949;48.152;11.528;2023-03-13T23:09:10;1.23;;;0.90;;
3867;SDS011;1949;48.152;11.528;2023-03-13T23:11:45;0.80;;;0.70;;
3867;SDS011;1949;48.152;11.528;2023-03-13T23:14:10;3.43;;;0.80;;
3867;SDS011;1949;48.152;11.528;2023-03-13T23:24:47;5.40;;;0.80;;
3867;SDS011;1949;48.152;11.528;2023-03-13T23:27:19;1.07;;;0.90;;
3867;SDS011;1949;48.152;11.528;2023-03-13T23:29:47;1.40;;;1.13;;